Gulf Bridge — A8JM5 — position and weather

sailwx.info

Track history (hours):
 
Tides and Currents Weather Stations Pressure Air Temp Water Temp Dewpoint Dewpoint Depression Visibility Wind Speed Wind Dir Waves Ship Positions

Gulf Bridge

Last reported at 2017-Mar-28 14:22 UTC. Time now 2017-Mar-30 12:48 UTC.
Position N 22°53' E 120°01'.

Length 213 m; beam 32.2 m; draft 11.5 m.

Type: Cargo ship. MMSI: 636017628.

Date/timePositionNaut miles runAvg speedWind from/ knotsBaromVisibWave heightAir tempDewpointWater temp
2017-Mar-28 14:22N 22°53' E 120°01'1619.7
2017-Mar-28 13:33N 22°40' E 120°10'1110.8
2017-Mar-28 12:33N 22°33' E 120°19'0 0.5
2017-Mar-28 11:32N 22°34' E 120°19'0 0.0
2017-Mar-28 10:33N 22°34' E 120°19'0 0.0
2017-Mar-28 09:32N 22°34' E 120°19'0 0.0
2017-Mar-28 08:32N 22°34' E 120°19'0 0.0
2017-Mar-28 07:23N 22°34' E 120°19'0 0.0
2017-Mar-28 06:33N 22°34' E 120°19'0 0.0
2017-Mar-28 05:33N 22°34' E 120°19'0 0.0
2017-Mar-28 04:33N 22°34' E 120°19'0 0.1
2017-Mar-28 03:33N 22°34' E 120°19'8 8.2
2017-Mar-28 02:34N 22°31' E 120°10'1514.7
2017-Mar-28 01:33N 22°28' E 119°55'  
2017-Mar-19 20:28N 23°56' E 118°14'1213.5
2017-Mar-19 19:32N 24°08' E 118°18'1312.9
2017-Mar-19 18:33N 24°19' E 118°11'1111.2
2017-Mar-19 17:33N 24°27' E 118°03'4 3.3
2017-Mar-19 16:23N 24°31' E 118°05'0 0.0
2017-Mar-19 15:08N 24°31' E 118°05'0 0.0
2017-Mar-19 14:23N 24°31' E 118°05'0 0.0
2017-Mar-19 12:17N 24°31' E 118°05'0 0.1
2017-Mar-19 11:29N 24°31' E 118°05'0 0.1
2017-Mar-19 10:32N 24°31' E 118°05'0 0.0
2017-Mar-19 09:29N 24°31' E 118°05'4 4.0
2017-Mar-19 08:33N 24°27' E 118°03'1010.3
2017-Mar-19 07:33N 24°20' E 118°11'8 8.1
2017-Mar-19 06:33N 24°14' E 118°16'12 8.7
2017-Mar-19 05:12N 24°05' E 118°25'1 1.2
2017-Mar-19 04:32N 24°04' E 118°25'1 1.1
2017-Mar-19 03:29N 24°04' E 118°27'1 1.3
2017-Mar-19 02:31N 24°04' E 118°28'11012.2
2017-Mar-18 17:33N 22°45' E 119°51'1312.5
2017-Mar-18 16:33N 22°37' E 120°01'1312.7
2017-Mar-18 15:33N 22°33' E 120°14'4 4.1
2017-Mar-18 14:28N 22°34' E 120°19'  
Track history (hours):
 
Tides and Currents Weather Stations Pressure Air Temp Water Temp Dewpoint Dewpoint Depression Visibility Wind Speed Wind Dir Waves Ship Positions

Gulf Bridge

Last reported at 2017-Mar-28 14:22 UTC. Time now 2017-Mar-30 12:48 UTC.
Position N 22°53' E 120°01'.

Length 213 m; beam 32.2 m; draft 11.5 m.

Type: Cargo ship. MMSI: 636017628.

Date/timePositionNaut miles runAvg speedWind from/ knotsBaromVisibWave heightAir tempDewpointWater temp
2017-Mar-28 14:22N 22°53' E 120°01'1619.7
2017-Mar-28 13:33N 22°40' E 120°10'1110.8
2017-Mar-28 12:33N 22°33' E 120°19'0 0.5
2017-Mar-28 11:32N 22°34' E 120°19'0 0.0
2017-Mar-28 10:33N 22°34' E 120°19'0 0.0
2017-Mar-28 09:32N 22°34' E 120°19'0 0.0
2017-Mar-28 08:32N 22°34' E 120°19'0 0.0
2017-Mar-28 07:23N 22°34' E 120°19'0 0.0
2017-Mar-28 06:33N 22°34' E 120°19'0 0.0
2017-Mar-28 05:33N 22°34' E 120°19'0 0.0
2017-Mar-28 04:33N 22°34' E 120°19'0 0.1
2017-Mar-28 03:33N 22°34' E 120°19'8 8.2
2017-Mar-28 02:34N 22°31' E 120°10'1514.7
2017-Mar-28 01:33N 22°28' E 119°55'  
2017-Mar-19 20:28N 23°56' E 118°14'1213.5
2017-Mar-19 19:32N 24°08' E 118°18'1312.9
2017-Mar-19 18:33N 24°19' E 118°11'1111.2
2017-Mar-19 17:33N 24°27' E 118°03'4 3.3
2017-Mar-19 16:23N 24°31' E 118°05'0 0.0
2017-Mar-19 15:08N 24°31' E 118°05'0 0.0
2017-Mar-19 14:23N 24°31' E 118°05'0 0.0
2017-Mar-19 12:17N 24°31' E 118°05'0 0.1
2017-Mar-19 11:29N 24°31' E 118°05'0 0.1
2017-Mar-19 10:32N 24°31' E 118°05'0 0.0
2017-Mar-19 09:29N 24°31' E 118°05'4 4.0
2017-Mar-19 08:33N 24°27' E 118°03'1010.3
2017-Mar-19 07:33N 24°20' E 118°11'8 8.1
2017-Mar-19 06:33N 24°14' E 118°16'12 8.7
2017-Mar-19 05:12N 24°05' E 118°25'1 1.2
2017-Mar-19 04:32N 24°04' E 118°25'1 1.1
2017-Mar-19 03:29N 24°04' E 118°27'1 1.3
2017-Mar-19 02:31N 24°04' E 118°28'11012.2
2017-Mar-18 17:33N 22°45' E 119°51'1312.5
2017-Mar-18 16:33N 22°37' E 120°01'1312.7
2017-Mar-18 15:33N 22°33' E 120°14'4 4.1
2017-Mar-18 14:28N 22°34' E 120°19'  

Dump ship's entire track history